createdAt,value
2018-08-20T00:01:54.611Z,15.23
2018-08-20T00:04:22.695Z,12.93
2018-08-20T00:06:57.112Z,14.90
2018-08-20T00:09:33.902Z,15.67
2018-08-20T00:12:02.098Z,13.27
2018-08-20T00:14:30.321Z,14.27
2018-08-20T00:16:58.611Z,12.93
2018-08-20T00:19:26.735Z,12.50
2018-08-20T00:21:54.880Z,14.50
2018-08-20T00:24:22.965Z,19.90
2018-08-20T00:26:51.078Z,12.13
2018-08-20T00:29:19.173Z,13.37
2018-08-20T00:31:48.851Z,14.30
2018-08-20T00:34:16.959Z,15.13
2018-08-20T00:36:45.337Z,16.10
2018-08-20T00:39:13.463Z,12.90
2018-08-20T00:41:41.630Z,11.70
2018-08-20T00:44:12.933Z,15.70
2018-08-20T00:46:41.918Z,14.03
2018-08-20T00:49:10.034Z,12.87
2018-08-20T00:51:38.167Z,10.93
2018-08-20T00:54:06.275Z,16.00
2018-08-20T00:56:34.410Z,11.57
2018-08-20T00:59:03.494Z,13.50
2018-08-20T01:01:31.843Z,13.80
2018-08-20T01:04:00.593Z,12.87
2018-08-20T01:06:28.772Z,12.80
2018-08-20T01:08:56.870Z,16.97
2018-08-20T01:11:24.986Z,13.67
2018-08-20T01:13:53.093Z,13.13
2018-08-20T01:16:21.204Z,16.07
2018-08-20T01:18:49.306Z,16.00
2018-08-20T01:21:17.408Z,12.27
2018-08-20T01:23:45.589Z,12.73
2018-08-20T01:26:13.778Z,14.87
2018-08-20T01:28:42.027Z,14.67
2018-08-20T01:31:10.144Z,13.03
2018-08-20T01:33:40.172Z,14.10
2018-08-20T01:36:08.270Z,12.30
2018-08-20T01:38:36.418Z,13.30
2018-08-20T01:41:04.522Z,15.60
2018-08-20T01:43:32.622Z,11.80
2018-08-20T01:46:00.726Z,11.13
2018-08-20T01:48:28.825Z,14.03
2018-08-20T01:50:56.952Z,13.27
2018-08-20T01:53:25.057Z,16.20
2018-08-20T01:55:53.158Z,14.00
2018-08-20T01:58:21.270Z,14.07
2018-08-20T02:00:49.387Z,12.43
2018-08-20T02:03:17.482Z,14.70
2018-08-20T02:05:46.472Z,13.30
2018-08-20T02:08:14.638Z,11.97
2018-08-20T02:10:42.871Z,11.83
2018-08-20T02:13:11.062Z,12.83
2018-08-20T02:15:39.245Z,11.57
2018-08-20T02:18:08.943Z,13.63
2018-08-20T02:20:37.102Z,14.23
2018-08-20T02:23:05.528Z,13.73
2018-08-20T02:25:33.641Z,15.50
2018-08-20T02:28:01.750Z,13.90
2018-08-20T02:30:40.883Z,13.07
2018-08-20T02:33:08.976Z,12.47
2018-08-20T02:35:37.082Z,12.13
2018-08-20T02:38:05.203Z,14.03
2018-08-20T02:40:33.954Z,14.40
2018-08-20T02:43:02.049Z,14.87
2018-08-20T02:45:30.158Z,13.33
2018-08-20T02:47:58.254Z,11.87
2018-08-20T02:50:26.364Z,12.97
2018-08-20T02:52:54.474Z,14.40
2018-08-20T02:55:22.590Z,13.80
2018-08-20T02:57:50.722Z,12.90
2018-08-20T03:00:18.838Z,13.10
2018-08-20T03:02:46.972Z,13.97
2018-08-20T03:05:15.082Z,11.27
2018-08-20T03:07:43.199Z,11.67
2018-08-20T03:10:12.422Z,12.83
2018-08-20T03:12:41.027Z,14.87
2018-08-20T03:15:09.995Z,11.90
2018-08-20T03:17:38.409Z,14.73
2018-08-20T03:20:06.890Z,14.60
2018-08-20T03:22:35.080Z,12.10
2018-08-20T03:25:03.169Z,11.00
2018-08-20T03:27:31.338Z,12.77
2018-08-20T03:29:59.502Z,10.93
2018-08-20T03:32:27.605Z,16.40
2018-08-20T03:34:55.733Z,15.43
2018-08-20T03:37:23.852Z,12.20
2018-08-20T03:39:51.979Z,14.33
2018-08-20T03:42:20.077Z,15.67
2018-08-20T03:44:48.194Z,16.03
2018-08-20T03:47:16.298Z,10.93
2018-08-20T03:49:44.409Z,13.17
2018-08-20T03:52:12.506Z,14.67
2018-08-20T03:54:40.654Z,12.10
2018-08-20T03:57:08.785Z,12.87
2018-08-20T03:59:37.527Z,13.83
2018-08-20T04:02:07.033Z,12.47
2018-08-20T04:04:35.143Z,10.83
2018-08-20T04:07:05.525Z,13.60
2018-08-20T04:09:34.053Z,11.83
2018-08-20T04:12:02.946Z,13.43
2018-08-20T04:14:31.052Z,11.33
2018-08-20T04:16:59.746Z,15.57
2018-08-20T04:19:28.231Z,14.93
2018-08-20T04:21:56.344Z,11.43
2018-08-20T04:24:24.466Z,11.50
2018-08-20T04:26:52.542Z,11.20
2018-08-20T04:29:21.432Z,9.90
2018-08-20T04:31:49.556Z,13.03
2018-08-20T04:34:17.693Z,14.87
2018-08-20T04:36:45.805Z,12.80
2018-08-20T04:39:14.410Z,12.63
2018-08-20T04:41:42.554Z,14.50
2018-08-20T04:44:10.645Z,12.83
2018-08-20T04:46:38.753Z,14.23
2018-08-20T04:49:06.888Z,12.07
2018-08-20T04:51:35.036Z,11.77
2018-08-20T04:54:03.094Z,12.13
2018-08-20T04:56:32.084Z,11.87
2018-08-20T04:59:00.205Z,11.10
2018-08-20T05:01:28.389Z,11.90
2018-08-20T05:03:56.455Z,13.33
2018-08-20T05:06:24.547Z,14.27
2018-08-20T05:08:52.681Z,10.97
2018-08-20T05:11:20.773Z,12.50
2018-08-20T05:13:48.928Z,16.03
2018-08-20T05:16:17.026Z,12.67
2018-08-20T05:18:45.157Z,13.67
2018-08-20T05:21:13.243Z,11.40
2018-08-20T05:23:41.327Z,12.17
2018-08-20T05:26:09.421Z,11.37
2018-08-20T05:28:37.526Z,13.80
2018-08-20T05:31:05.729Z,11.10
2018-08-20T05:33:33.842Z,12.50
2018-08-20T05:36:01.964Z,11.10
2018-08-20T05:38:30.086Z,14.13
2018-08-20T05:40:58.214Z,11.30
2018-08-20T05:43:26.338Z,13.67
2018-08-20T05:45:54.438Z,14.60
2018-08-20T05:48:22.543Z,11.80
2018-08-20T05:50:50.641Z,11.93
2018-08-20T05:53:18.728Z,12.40
2018-08-20T05:55:46.843Z,13.37
2018-08-20T05:58:14.953Z,11.50
2018-08-20T06:00:43.082Z,16.93
2018-08-20T06:03:11.193Z,35.70
2018-08-20T06:05:39.291Z,15.70
2018-08-20T06:08:07.399Z,17.63
2018-08-20T06:10:35.501Z,16.57
2018-08-20T06:13:03.615Z,26.63
2018-08-20T06:15:31.746Z,13.93
2018-08-20T06:17:59.850Z,24.13
2018-08-20T06:20:28.026Z,19.47
2018-08-20T06:22:56.129Z,20.50
2018-08-20T06:25:24.233Z,18.17
2018-08-20T06:27:52.337Z,22.47
2018-08-20T06:30:20.446Z,21.57
2018-08-20T06:32:48.551Z,24.27
2018-08-20T06:35:16.669Z,18.30
2018-08-20T06:37:44.805Z,16.70
2018-08-20T06:40:14.083Z,17.20
2018-08-20T06:42:42.198Z,15.53
2018-08-20T06:45:14.499Z,17.33
2018-08-20T06:47:43.434Z,17.37
2018-08-20T06:50:11.533Z,20.77
2018-08-20T06:52:40.180Z,17.47
2018-08-20T06:55:08.293Z,19.53
2018-08-20T06:57:36.458Z,23.17
2018-08-20T07:00:06.346Z,17.07
2018-08-20T07:02:34.425Z,21.67
2018-08-20T07:05:02.547Z,22.33
2018-08-20T07:07:30.649Z,18.63
2018-08-20T07:09:58.759Z,19.33
2018-08-20T07:12:26.898Z,21.33
2018-08-20T07:14:55.001Z,18.73
2018-08-20T07:17:23.148Z,17.77
2018-08-20T07:19:51.201Z,22.70
2018-08-20T07:22:19.314Z,18.37
2018-08-20T07:24:56.399Z,15.57
2018-08-20T07:27:24.611Z,17.60
2018-08-20T07:29:53.311Z,18.33
2018-08-20T07:32:21.411Z,16.10
2018-08-20T07:34:49.510Z,17.03
2018-08-20T07:37:18.510Z,16.80
2018-08-20T07:39:47.841Z,19.23
2018-08-20T07:42:15.943Z,15.83
2018-08-20T07:44:44.924Z,14.97
2018-08-20T07:47:13.056Z,15.60
2018-08-20T07:49:41.179Z,15.33
2018-08-20T07:52:10.372Z,15.50
2018-08-20T07:54:39.246Z,21.17
2018-08-20T07:57:08.611Z,15.90
2018-08-20T07:59:36.838Z,17.47
2018-08-20T08:02:05.003Z,15.53
2018-08-20T08:04:33.118Z,16.60
2018-08-20T08:07:01.248Z,15.70
2018-08-20T08:09:29.355Z,15.70
2018-08-20T08:11:57.459Z,15.60
2018-08-20T08:14:25.555Z,16.90
2018-08-20T08:16:53.735Z,18.80
2018-08-20T08:19:21.847Z,15.97
2018-08-20T08:21:49.994Z,15.27
2018-08-20T08:24:18.114Z,15.70
2018-08-20T08:26:46.243Z,13.53
2018-08-20T08:29:14.356Z,15.40
2018-08-20T08:31:42.478Z,14.23
2018-08-20T08:34:10.671Z,13.00
2018-08-20T08:36:38.855Z,13.27
2018-08-20T08:39:09.210Z,11.20
2018-08-20T08:41:37.328Z,12.80
2018-08-20T08:44:05.726Z,8.60
2018-08-20T08:46:33.825Z,8.63
2018-08-20T08:49:01.923Z,7.97
2018-08-20T08:51:30.042Z,7.60
2018-08-20T08:53:58.149Z,7.60
2018-08-20T08:56:26.255Z,6.57
2018-08-20T08:58:54.354Z,9.43
2018-08-20T09:01:22.470Z,8.80
2018-08-20T09:03:50.591Z,9.50
2018-08-20T09:06:18.727Z,11.63
2018-08-20T09:08:46.829Z,7.47
2018-08-20T09:11:14.935Z,7.17
2018-08-20T09:13:43.052Z,7.97
2018-08-20T09:16:11.122Z,5.97
2018-08-20T09:18:39.218Z,5.67
2018-08-20T09:21:07.318Z,7.23
2018-08-20T09:23:35.840Z,6.60
2018-08-20T09:26:03.952Z,6.23
2018-08-20T09:28:32.038Z,6.00
2018-08-20T09:31:00.125Z,6.53
2018-08-20T09:33:28.218Z,6.60
2018-08-20T09:35:56.333Z,6.60
2018-08-20T09:38:24.520Z,6.43
2018-08-20T09:40:52.521Z,6.63
2018-08-20T09:43:20.619Z,6.43
2018-08-20T09:45:48.713Z,8.30
2018-08-20T09:48:16.825Z,6.93
2018-08-20T09:50:44.934Z,5.83
2018-08-20T09:53:13.079Z,5.37
2018-08-20T09:55:41.121Z,8.83
2018-08-20T09:58:09.231Z,4.77
2018-08-20T10:00:39.203Z,4.50
2018-08-20T10:03:08.065Z,4.17
2018-08-20T10:05:36.190Z,4.90
2018-08-20T10:08:04.371Z,7.47
2018-08-20T10:10:32.482Z,4.50
2018-08-20T10:13:00.594Z,4.70
2018-08-20T10:15:28.682Z,6.43
2018-08-20T10:17:56.911Z,5.13
2018-08-20T10:20:25.030Z,5.20
2018-08-20T10:22:53.138Z,7.37
2018-08-20T10:25:22.222Z,4.37
2018-08-20T10:27:50.334Z,4.80
2018-08-20T10:30:18.431Z,4.83
2018-08-20T10:32:46.534Z,5.40
2018-08-20T10:35:14.633Z,6.17
2018-08-20T10:37:42.803Z,5.80
2018-08-20T10:40:10.828Z,6.50
2018-08-20T10:42:39.313Z,6.30
2018-08-20T10:45:18.845Z,6.73
2018-08-20T10:47:48.241Z,9.07
2018-08-20T10:50:18.159Z,8.00
2018-08-20T10:52:51.173Z,8.43
2018-08-20T10:55:19.338Z,6.03
2018-08-20T10:57:47.725Z,6.30
2018-08-20T11:00:16.740Z,6.23
2018-08-20T11:02:44.842Z,6.60
2018-08-20T11:05:15.699Z,6.77
2018-08-20T11:07:45.746Z,5.20
2018-08-20T11:10:13.946Z,9.60
2018-08-20T11:12:41.965Z,6.00
2018-08-20T11:15:10.799Z,7.23
2018-08-20T11:17:39.015Z,4.80
2018-08-20T11:20:10.670Z,5.00
2018-08-20T11:22:47.558Z,6.13
2018-08-20T11:25:15.661Z,8.80
2018-08-20T11:27:43.814Z,5.50
2018-08-20T11:30:13.118Z,5.97
2018-08-20T11:32:41.202Z,7.33
2018-08-20T11:35:10.051Z,6.03
2018-08-20T11:37:38.154Z,9.13
2018-08-20T11:40:06.887Z,7.23
2018-08-20T11:42:35.003Z,6.13
2018-08-20T11:45:03.099Z,6.20
2018-08-20T11:47:31.205Z,7.60
2018-08-20T11:49:59.322Z,11.27
2018-08-20T11:52:27.423Z,6.70
2018-08-20T11:54:55.506Z,5.80
2018-08-20T11:57:23.595Z,7.10
2018-08-20T11:59:51.698Z,6.33
2018-08-20T12:02:19.778Z,6.73
2018-08-20T12:04:47.892Z,5.60
2018-08-20T12:07:17.044Z,6.43
2018-08-20T12:09:45.103Z,10.17
2018-08-20T12:12:13.264Z,6.37
2018-08-20T12:14:48.837Z,6.40
2018-08-20T12:17:17.018Z,6.67
2018-08-20T12:19:45.033Z,8.50
2018-08-20T12:22:13.135Z,12.73
2018-08-20T12:24:41.231Z,9.33
2018-08-20T12:27:09.350Z,6.27
2018-08-20T12:29:37.468Z,6.20
2018-08-20T12:32:05.586Z,5.93
2018-08-20T12:34:33.709Z,7.90
2018-08-20T12:37:01.831Z,5.97
2018-08-20T12:39:29.943Z,4.60
2018-08-20T12:41:58.046Z,5.10
2018-08-20T12:44:26.167Z,4.13
2018-08-20T12:46:54.262Z,5.40
2018-08-20T12:49:22.362Z,3.77
2018-08-20T12:51:50.446Z,6.53
2018-08-20T12:54:18.565Z,2.50
2018-08-20T12:56:46.659Z,6.20
2018-08-20T12:59:14.771Z,4.20
2018-08-20T13:01:42.894Z,3.83
2018-08-20T13:04:11.007Z,3.30
2018-08-20T13:06:39.102Z,4.03
2018-08-20T13:09:07.502Z,4.40
2018-08-20T13:11:35.601Z,4.47
2018-08-20T13:14:03.775Z,6.27
2018-08-20T13:16:31.936Z,4.60
2018-08-20T13:19:00.062Z,7.43
2018-08-20T13:21:28.165Z,4.47
2018-08-20T13:23:56.258Z,6.37
2018-08-20T13:26:24.362Z,8.67
2018-08-20T13:28:52.478Z,4.97
2018-08-20T13:31:20.606Z,4.87
2018-08-20T13:33:48.715Z,5.23
2018-08-20T13:36:16.812Z,4.97
2018-08-20T13:38:44.914Z,6.00
2018-08-20T13:41:13.158Z,29.53
2018-08-20T13:43:41.429Z,5.80
2018-08-20T13:46:09.622Z,8.70
2018-08-20T13:48:37.811Z,7.60
2018-08-20T13:51:06.031Z,8.53
2018-08-20T13:53:34.243Z,7.77
2018-08-20T13:56:02.427Z,9.30
2018-08-20T13:58:30.651Z,13.03
2018-08-20T14:00:59.495Z,11.23
2018-08-20T14:03:27.731Z,11.23
2018-08-20T14:05:55.934Z,11.40
2018-08-20T14:08:24.171Z,11.60
2018-08-20T14:10:52.356Z,11.60
2018-08-20T14:13:20.526Z,12.00
2018-08-20T14:15:48.759Z,9.70
2018-08-20T14:18:16.922Z,9.87
2018-08-20T14:21:19.024Z,10.30
2018-08-20T14:23:48.336Z,7.20
2018-08-20T14:26:16.565Z,8.90
2018-08-20T14:28:44.794Z,7.90
2018-08-20T14:31:13.064Z,6.93
2018-08-20T14:33:41.368Z,7.90
2018-08-20T14:36:10.115Z,8.30
2018-08-20T14:38:38.306Z,7.13
2018-08-20T14:41:06.678Z,20.63
2018-08-20T14:43:34.954Z,6.30
2018-08-20T14:46:08.525Z,6.40
2018-08-20T14:48:36.746Z,5.13
2018-08-20T14:51:05.101Z,4.60
2018-08-20T14:53:33.409Z,3.90
2018-08-20T14:56:01.619Z,4.10
2018-08-20T14:58:29.819Z,4.13
2018-08-20T15:00:58.149Z,6.57
2018-08-20T15:03:26.331Z,6.90
2018-08-20T15:05:54.635Z,4.60
2018-08-20T15:08:22.874Z,3.63
2018-08-20T15:10:51.148Z,3.80
2018-08-20T15:13:19.363Z,4.27
2018-08-20T15:15:47.795Z,5.97
2018-08-20T15:18:15.763Z,3.67
2018-08-20T15:20:43.923Z,8.00
2018-08-20T15:23:12.122Z,6.83
2018-08-20T15:25:40.305Z,4.33
2018-08-20T15:28:08.462Z,4.30
2018-08-20T15:30:36.730Z,4.90
2018-08-20T15:33:04.939Z,4.23
2018-08-20T15:35:33.134Z,4.43
2018-08-20T15:38:01.373Z,5.30
2018-08-20T15:40:29.586Z,4.90
2018-08-20T15:42:57.823Z,4.40
2018-08-20T15:45:26.968Z,6.27
2018-08-20T15:47:55.207Z,4.27
2018-08-20T15:50:24.952Z,3.73
2018-08-20T15:52:53.262Z,6.10
2018-08-20T15:55:21.481Z,3.77
2018-08-20T15:57:49.671Z,8.20
2018-08-20T16:00:17.899Z,4.30
2018-08-20T16:02:47.409Z,3.13
2018-08-20T16:05:16.771Z,2.90
2018-08-20T16:07:45.119Z,2.67
2018-08-20T16:10:13.350Z,3.97
2018-08-20T16:12:43.334Z,2.47
2018-08-20T16:15:11.704Z,4.00
2018-08-20T16:17:40.026Z,6.23
2018-08-20T16:20:08.836Z,2.97
2018-08-20T16:22:37.947Z,3.60
2018-08-20T16:25:07.238Z,39.00
2018-08-20T16:27:35.483Z,6.97
2018-08-20T16:30:04.874Z,7.63
2018-08-20T16:32:33.071Z,17.50
2018-08-20T16:35:01.356Z,14.40
2018-08-20T16:37:29.716Z,7.30
2018-08-20T16:39:58.387Z,3.83
2018-08-20T16:42:26.778Z,5.00
2018-08-20T16:44:55.070Z,8.20
2018-08-20T16:47:23.468Z,9.37
2018-08-20T16:49:51.695Z,14.23
2018-08-20T16:52:19.909Z,12.83
2018-08-20T16:54:48.137Z,38.37
2018-08-20T16:57:16.368Z,11.37
2018-08-20T16:59:44.546Z,8.10
2018-08-20T17:02:19.247Z,12.57
2018-08-20T17:04:47.519Z,8.50
2018-08-20T17:07:15.792Z,5.80
2018-08-20T17:09:44.562Z,4.83
2018-08-20T17:12:12.848Z,8.60
2018-08-20T17:14:41.034Z,5.43
2018-08-20T17:17:09.228Z,9.07
2018-08-20T17:19:38.122Z,6.83
2018-08-20T17:22:06.283Z,7.67
2018-08-20T17:24:38.265Z,14.93
2018-08-20T17:27:06.527Z,14.40
2018-08-20T17:29:34.853Z,12.63
2018-08-20T17:32:04.918Z,16.23
2018-08-20T17:34:33.334Z,21.67
2018-08-20T17:37:01.602Z,12.63
2018-08-20T17:39:29.884Z,18.93
2018-08-20T17:42:00.135Z,8.70
2018-08-20T17:44:29.250Z,9.57
2018-08-20T17:46:57.481Z,13.23
2018-08-20T17:49:30.227Z,8.70
2018-08-20T17:51:58.548Z,9.63
2018-08-20T17:54:28.731Z,57.80
2018-08-20T17:56:58.933Z,39.63
2018-08-20T17:59:27.086Z,42.93
2018-08-20T18:01:55.191Z,26.67
2018-08-20T18:04:23.297Z,17.90
2018-08-20T18:06:53.814Z,9.83
2018-08-20T18:09:22.030Z,9.97
2018-08-20T18:11:51.103Z,8.27
2018-08-20T18:14:20.866Z,12.73
2018-08-20T18:16:49.074Z,11.70
2018-08-20T18:19:17.463Z,6.90
2018-08-20T18:21:45.730Z,8.30
2018-08-20T18:24:15.890Z,9.80
2018-08-20T18:26:45.609Z,8.83
2018-08-20T18:29:13.895Z,11.20
2018-08-20T18:31:42.175Z,11.37
2018-08-20T18:34:10.360Z,15.77
2018-08-20T18:36:38.559Z,15.30
2018-08-20T18:39:11.410Z,21.43
2018-08-20T18:42:11.506Z,18.00
2018-08-20T18:44:39.694Z,20.33
2018-08-20T18:47:15.426Z,21.83
2018-08-20T18:49:52.527Z,27.47
2018-08-20T18:52:21.664Z,19.70
2018-08-20T18:54:51.129Z,22.97
2018-08-20T18:57:24.808Z,22.80
2018-08-20T18:59:53.766Z,22.67
2018-08-20T19:03:00.995Z,20.13
2018-08-20T19:05:39.206Z,23.80
2018-08-20T19:08:11.705Z,24.63
2018-08-20T19:10:39.887Z,20.23
2018-08-20T19:13:08.095Z,21.40
2018-08-20T19:15:39.295Z,19.80
2018-08-20T19:18:09.825Z,19.03
2018-08-20T19:20:38.626Z,23.60
2018-08-20T19:23:06.808Z,23.83
2018-08-20T19:25:34.975Z,20.60
2018-08-20T19:28:07.879Z,20.20
2018-08-20T19:30:36.067Z,20.50
2018-08-20T19:33:04.340Z,19.83
2018-08-20T19:35:32.557Z,19.83
2018-08-20T19:38:00.714Z,22.23
2018-08-20T19:40:28.899Z,23.10
2018-08-20T19:42:57.100Z,21.60
2018-08-20T19:45:29.391Z,19.00
2018-08-20T19:47:58.634Z,24.97
2018-08-20T19:50:26.766Z,14.73
2018-08-20T19:52:55.278Z,16.77
2018-08-20T19:55:23.433Z,21.03
2018-08-20T19:57:51.848Z,16.60
2018-08-20T20:00:19.970Z,21.30
2018-08-20T20:02:48.150Z,16.17
2018-08-20T20:05:16.351Z,16.30
2018-08-20T20:07:51.605Z,16.53
2018-08-20T20:10:19.865Z,18.43
2018-08-20T20:12:53.467Z,19.50
2018-08-20T20:15:21.870Z,17.43
2018-08-20T20:17:50.229Z,21.73
2018-08-20T20:20:18.609Z,17.77
2018-08-20T20:22:46.767Z,22.63
2018-08-20T20:25:14.944Z,18.10
2018-08-20T20:27:44.187Z,15.40
2018-08-20T20:30:12.370Z,18.90
2018-08-20T20:32:40.510Z,15.13
2018-08-20T20:35:11.022Z,14.07
2018-08-20T20:37:39.166Z,17.93
2018-08-20T20:40:07.570Z,17.73
2018-08-20T20:42:35.734Z,15.37
2018-08-20T20:45:04.294Z,13.87
2018-08-20T20:47:32.460Z,13.20
2018-08-20T20:50:00.632Z,13.53
2018-08-20T20:52:28.857Z,14.33
2018-08-20T20:54:56.994Z,12.80
2018-08-20T20:57:25.162Z,13.03
2018-08-20T20:59:53.318Z,12.33
2018-08-20T21:02:21.469Z,14.67
2018-08-20T21:04:49.644Z,21.00
2018-08-20T21:07:22.242Z,16.23
2018-08-20T21:09:50.398Z,16.87
2018-08-20T21:12:18.911Z,15.70
2018-08-20T21:14:47.034Z,17.13
2018-08-20T21:17:15.225Z,17.13
2018-08-20T21:19:43.589Z,16.80
2018-08-20T21:22:11.699Z,16.67
2018-08-20T21:24:39.999Z,14.40
2018-08-20T21:27:08.730Z,15.57
2018-08-20T21:29:42.210Z,14.50
2018-08-20T21:32:10.363Z,13.90
2018-08-20T21:34:40.885Z,15.20
2018-08-20T21:37:23.568Z,15.63
2018-08-20T21:39:51.711Z,14.03
2018-08-20T21:42:29.790Z,13.40
2018-08-20T21:44:58.662Z,14.63
2018-08-20T21:47:27.911Z,13.40
2018-08-20T21:49:56.092Z,14.10
2018-08-20T21:52:24.394Z,14.90
2018-08-20T21:54:52.721Z,14.00
2018-08-20T21:57:20.903Z,16.87
2018-08-20T22:00:00.256Z,13.27
2018-08-20T22:02:31.123Z,12.53
2018-08-20T22:04:59.314Z,18.23
2018-08-20T22:07:27.481Z,14.87
2018-08-20T22:09:55.744Z,13.70
2018-08-20T22:12:23.970Z,13.97
2018-08-20T22:14:52.099Z,15.50
2018-08-20T22:17:25.660Z,14.40
2018-08-20T22:19:53.863Z,19.30
2018-08-20T22:22:23.012Z,11.30
2018-08-20T22:24:57.074Z,11.50
2018-08-20T22:27:29.158Z,11.77
2018-08-20T22:30:02.564Z,12.90
2018-08-20T22:32:31.405Z,17.90
2018-08-20T22:34:59.885Z,16.73
2018-08-20T22:37:28.390Z,14.27
2018-08-20T22:40:11.055Z,13.83
2018-08-20T22:42:50.582Z,14.40
2018-08-20T22:45:19.995Z,13.47
2018-08-20T22:47:49.116Z,14.00
2018-08-20T22:50:17.554Z,14.90
2018-08-20T22:52:47.403Z,12.13
2018-08-20T22:55:16.946Z,12.20
2018-08-20T22:57:56.759Z,16.50
2018-08-20T23:00:25.877Z,14.03
2018-08-20T23:03:07.503Z,13.97
2018-08-20T23:05:35.682Z,13.93
2018-08-20T23:08:14.093Z,20.17
2018-08-20T23:10:43.318Z,14.20
2018-08-20T23:13:11.487Z,12.73
2018-08-20T23:15:39.659Z,12.50
2018-08-20T23:18:07.825Z,14.23
2018-08-20T23:20:36.011Z,12.50
2018-08-20T23:23:04.159Z,16.40
2018-08-20T23:25:32.338Z,11.50
2018-08-20T23:28:00.514Z,12.37
2018-08-20T23:30:28.677Z,12.33
2018-08-20T23:32:56.843Z,13.07
2018-08-20T23:35:25.003Z,13.00
2018-08-20T23:37:53.155Z,14.03
2018-08-20T23:40:21.315Z,15.70
2018-08-20T23:42:49.478Z,12.50
2018-08-20T23:45:17.615Z,14.57
2018-08-20T23:47:45.766Z,24.10
2018-08-20T23:50:13.959Z,15.07
2018-08-20T23:52:42.168Z,13.77
2018-08-20T23:55:10.337Z,13.63
2018-08-20T23:57:38.499Z,13.30
